Grand Marsh, WI (53936)

3:16 PM CST on December 10, 2016 (GMT -0600)
| | Change Station
Active Advisory: Winter Weather Advisory

Elev -9999 ft 0.00 °N, 0.00 °E | Updated 4 minutes ago

Overcast
Overcast
67 °F
Feels Like 67 °F
N
0
Wind Variable Wind from SW
Gusts mph

Today
High -- | Low -- °F
--% Chance of Precip.
Yesterday
High -- | Low -- °F
Precip. -- in
Pressure 30.46 in
Visibility 10.0 miles
Clouds Few 12000 ft
Dew Point 59 °F
Humidity 77%
Rainfall --
Snow Depth Not available.
7:22 AM 4:21 PM
Waxing Gibbous, 86% visible
METAR KY50 102056Z AUTO 24004KT 10SM FEW120 M08/M14 A3037 RMK AO2 SLP315 T10831139 56020
Pressure 30.46 in
Visibility 10.0 miles
Clouds Few 12000 ft
Dew Point 59 °F
Humidity 77%
Rainfall --
Snow Depth Not available.
7:22 AM 4:21 PM
Waxing Gibbous, 86% visible
METAR KY50 102056Z AUTO 24004KT 10SM FEW120 M08/M14 A3037 RMK AO2 SLP315 T10831139 56020

10-Day Weather Forecast

Almanac

Astronomy

Dec. 10, 2016 Rise Set
Actual Time
Civil Twilight
Nautical Twilight
Astronomical Twilight
Moon
Length of Visible Light
Length of Day
Tomorrow will be .
, % of the Moon is Illuminated

Today's Extremes

State Highs State Lows

Community

WunderPhotos

Upload Photos

1,956,664 photos uploaded!

WunderBlog® & News

Nearby

Air Quality

  Air Quality AQ Index Pollutant
Not available.

Snow Depth

Station Depth Elevation

Earthquake Activity

City Distance Mag. Time & Date
Minimum magnitude displayed is 2.5.

Coastal Water Temperatures

Place Temperature

Stations

Nearby Weather Stations

Station Location Temp. Windchill Dew Point Humidity Wind Precip. Elev Updated Type
                   

Watches & Warnings

Winter Weather Advisory
Issued: 1:55 PM CST Dec. 10, 2016 – National Weather Service

... Winter Weather Advisory remains in effect until 9 PM CST
Sunday...

* expect snow to move in this afternoon and increase in intensity
tonight... then diminish around 9 PM Sunday.

* The heaviest snowfall rates are expected between 6 am and noon
Sunday.

* Total snow accumulations of 6 to 8 inches are expected.

* Look for reduced visibilities at times.

* Plan on difficult driving conditions.

Precautionary/preparedness actions...

A Winter Weather Advisory for snow means periods of snow will
cause primarily travel difficulties. Be prepared for snow covered
roads and limited visibilities... and use caution while driving.
The latest Road conditions for the state you are calling from can
be obtained by calling 5 1 1.